Time;durP1;ratioP1;P1;durP2;ratioP2;P2;SDS_P1;SDS_P2;PMS_P1;PMS_P2;Temp;Humidity;BMP_temperature;BMP_pressure;BME280_temperature;BME280_humidity;BME280_pressure;Samples;Min_cycle;Max_cycle;Signal;HPM_P1;HPM_P2
2023/05/26 00:01:25;;;;;;;;;8.00;8.00;;;;;15.95;65.10;102345.38;5062346;28;45490;-83
2023/05/26 00:03:50;;;;;;;;;10.00;10.00;;;;;15.93;65.37;102336.59;5061422;28;45521;-83
2023/05/26 00:06:16;;;;;;;;;8.33;7.00;;;;;15.96;65.02;102364.03;5079286;28;45415;-83
2023/05/26 00:08:41;;;;;;;;;14.00;9.00;;;;;16.22;65.90;102402.00;5078810;28;45470;-83
2023/05/26 00:11:07;;;;;;;;;13.00;9.33;;;;;16.28;65.59;102405.28;5080177;28;45598;-83
2023/05/26 00:13:33;;;;;;;;;9.33;9.33;;;;;16.07;66.85;102376.84;5043577;28;45669;-84
2023/05/26 00:15:59;;;;;;;;;12.67;11.67;;;;;15.84;65.78;102353.00;5073328;28;45800;-84
2023/05/26 00:18:26;;;;;;;;;11.00;11.00;;;;;16.03;66.43;102383.28;5061634;28;45496;-83
2023/05/26 00:20:55;;;;;;;;;16.00;13.00;;;;;15.83;66.15;102346.81;5076313;28;45510;-84
2023/05/26 00:23:24;;;;;;;;;10.00;10.00;;;;;15.71;67.16;102341.13;5078066;28;45347;-83
2023/05/26 00:25:50;;;;;;;;;13.00;11.67;;;;;15.67;66.44;102328.88;5061514;28;45761;-84
2023/05/26 00:28:20;;;;;;;;;16.33;13.00;;;;;15.61;67.23;102322.00;5048353;28;45432;-83
2023/05/26 00:30:57;;;;;;;;;12.00;11.00;;;;;15.58;67.66;102330.13;5077721;28;45487;-83
2023/05/26 00:33:29;;;;;;;;;15.67;14.00;;;;;15.91;69.20;102386.47;5060643;28;45317;-83
2023/05/26 00:35:55;;;;;;;;;15.67;12.00;;;;;15.60;67.79;102322.97;5051799;28;46222;-83
2023/05/26 00:38:22;;;;;;;;;14.00;14.00;;;;;15.39;69.33;102305.19;5059840;28;46233;-84
2023/05/26 00:40:52;;;;;;;;;16.67;14.33;;;;;15.57;70.37;102333.75;5078194;28;45509;-84
2023/05/26 00:43:27;;;;;;;;;20.00;17.00;;;;;15.78;69.47;102382.63;5057952;28;45401;-85
2023/05/26 00:45:54;;;;;;;;;13.67;13.00;;;;;15.52;69.50;102347.28;5060430;28;45468;-84
2023/05/26 00:48:21;;;;;;;;;15.67;15.33;;;;;15.25;70.20;102308.44;5057416;28;47434;-84
2023/05/26 00:50:47;;;;;;;;;14.33;14.00;;;;;15.42;70.20;102332.56;5058160;28;45354;-84
2023/05/26 00:53:14;;;;;;;;;18.33;15.00;;;;;15.72;70.06;102398.91;5078724;28;45459;-84
2023/05/26 00:55:43;;;;;;;;;13.67;13.00;;;;;15.21;70.52;102300.66;5055046;28;45495;-84
2023/05/26 00:58:19;;;;;;;;;13.00;13.00;;;;;15.17;71.04;102318.56;5059796;28;45672;-84
2023/05/26 01:00:45;;;;;;;;;14.33;12.67;;;;;15.26;71.19;102341.28;5061026;28;45615;-84
2023/05/26 01:03:13;;;;;;;;;17.00;14.67;;;;;15.30;72.04;102353.56;5060807;27;45451;-84
2023/05/26 01:05:39;;;;;;;;;18.33;15.33;;;;;15.17;72.51;102341.69;5071190;28;45640;-83
2023/05/26 01:08:04;;;;;;;;;19.33;17.00;;;;;15.16;72.25;102346.13;5059513;28;45903;-83
2023/05/26 01:10:33;;;;;;;;;16.00;16.00;;;;;15.02;72.39;102319.19;5060669;28;45327;-83
2023/05/26 01:13:20;;;;;;;;;16.00;14.00;;;;;15.44;71.73;102394.72;5061420;28;45354;-83
2023/05/26 01:15:58;;;;;;;;;20.67;16.00;;;;;15.13;72.69;102349.81;5046561;28;45500;-83
2023/05/26 01:18:55;;;;;;;;;16.67;16.33;;;;;15.31;72.14;102392.63;5060739;28;46367;-83
2023/05/26 01:21:24;;;;;;;;;20.00;16.67;;;;;15.24;74.76;102389.34;5045929;28;45332;-83
2023/05/26 01:23:52;;;;;;;;;15.67;15.00;;;;;15.25;74.31;102391.06;5059715;28;45391;-83
2023/05/26 01:26:54;;;;;;;;;19.67;18.00;;;;;15.21;74.73;102394.81;5080369;28;45617;-83
2023/05/26 01:29:25;;;;;;;;;22.67;18.33;;;;;15.12;74.72;102389.81;5064950;28;48364;-83
2023/05/26 01:31:50;;;;;;;;;16.33;16.00;;;;;14.85;75.63;102359.00;5081607;28;45342;-84
2023/05/26 01:34:16;;;;;;;;;14.33;13.33;;;;;15.06;76.08;102398.06;5060927;28;45453;-83
2023/05/26 01:36:41;;;;;;;;;23.00;18.33;;;;;14.95;75.57;102379.00;5075280;28;45451;-84
2023/05/26 01:39:13;;;;;;;;;19.33;17.33;;;;;14.67;76.13;102333.06;5064396;28;47546;-84
2023/05/26 01:41:47;;;;;;;;;14.00;13.33;;;;;15.01;76.82;102402.75;5047170;28;45523;-84
2023/05/26 01:44:29;;;;;;;;;20.33;18.00;;;;;14.72;76.27;102360.41;5059131;28;45457;-84
2023/05/26 01:46:55;;;;;;;;;20.33;15.67;;;;;14.25;76.54;102300.97;5059729;28;45507;-84
2023/05/26 01:49:26;;;;;;;;;20.33;16.00;;;;;14.37;76.97;102320.03;5077886;28;45556;-84
2023/05/26 01:52:01;;;;;;;;;19.67;17.33;;;;;14.15;77.51;102292.47;5056058;28;45331;-84
2023/05/26 01:54:35;;;;;;;;;17.00;15.33;;;;;14.27;77.29;102323.06;5054904;28;45327;-83
2023/05/26 01:57:02;;;;;;;;;18.33;16.00;;;;;14.34;77.98;102341.44;5060040;28;45447;-84
2023/05/26 01:59:30;;;;;;;;;17.33;16.00;;;;;14.38;77.74;102358.19;5076995;28;46349;-84
2023/05/26 02:01:56;;;;;;;;;19.00;14.67;;;;;14.41;78.59;102382.00;5064844;28;45438;-84
2023/05/26 02:04:21;;;;;;;;;14.67;13.33;;;;;14.38;78.49;102376.81;5073695;28;45482;-85
2023/05/26 02:06:47;;;;;;;;;17.33;16.67;;;;;14.06;78.51;102325.63;5074880;28;45545;-84
2023/05/26 02:09:13;;;;;;;;;16.33;12.67;;;;;14.22;78.72;102352.53;5077455;28;46131;-84
2023/05/26 02:11:38;;;;;;;;;19.33;12.67;;;;;13.93;78.53;102335.00;5053848;28;45247;-84
2023/05/26 02:14:03;;;;;;;;;11.67;11.67;;;;;14.19;78.44;102373.94;5071747;28;45222;-84
2023/05/26 02:16:29;;;;;;;;;16.33;15.33;;;;;14.47;80.03;102417.25;5068092;28;45243;-83
2023/05/26 02:18:55;;;;;;;;;25.33;16.00;;;;;14.19;79.69;102367.75;5081423;28;45523;-83
2023/05/26 02:21:21;;;;;;;;;17.67;13.67;;;;;13.90;79.80;102327.13;5058309;28;45404;-84
2023/05/26 02:23:49;;;;;;;;;20.33;15.67;;;;;13.89;79.49;102332.50;5073325;28;45305;-83
2023/05/26 02:26:18;;;;;;;;;16.67;14.33;;;;;13.73;79.51;102299.41;5049759;28;45508;-84
2023/05/26 02:28:44;;;;;;;;;19.00;14.00;;;;;14.36;80.23;102427.44;5051061;28;47705;-84
2023/05/26 02:31:10;;;;;;;;;18.67;14.00;;;;;14.11;80.35;102373.34;5062519;28;45284;-84
2023/05/26 02:33:41;;;;;;;;;16.67;15.67;;;;;13.70;81.39;102310.16;5081534;28;45400;-84
2023/05/26 02:36:07;;;;;;;;;16.67;14.00;;;;;13.71;80.87;102309.25;5079418;28;45277;-83
2023/05/26 02:38:32;;;;;;;;;12.00;12.00;;;;;13.74;80.79;102341.03;5061501;28;47932;-84
2023/05/26 02:41:01;;;;;;;;;15.67;13.00;;;;;14.18;81.78;102409.44;5058543;28;45391;-83
2023/05/26 02:43:32;;;;;;;;;14.00;12.67;;;;;14.00;80.78;102397.66;5057677;28;45355;-83
2023/05/26 02:45:57;;;;;;;;;9.33;8.00;;;;;14.12;81.51;102422.97;5062222;28;45458;-83
2023/05/26 02:48:23;;;;;;;;;16.33;13.00;;;;;13.62;81.22;102334.34;5080523;28;45475;-83
2023/05/26 02:50:55;;;;;;;;;13.67;11.33;;;;;13.50;81.84;102314.41;5080696;28;45550;-83
2023/05/26 02:53:21;;;;;;;;;14.67;10.00;;;;;13.49;81.78;102322.41;5061956;28;45455;-83
2023/05/26 02:55:51;;;;;;;;;19.33;12.67;;;;;13.51;81.01;102316.09;5081367;28;45447;-82
2023/05/26 02:58:17;;;;;;;;;15.00;12.00;;;;;13.39;81.16;102310.34;5049633;28;46975;-83
2023/05/26 03:00:42;;;;;;;;;17.33;10.00;;;;;13.81;81.33;102375.31;5076491;28;45930;-83
2023/05/26 03:03:08;;;;;;;;;15.67;13.67;;;;;14.02;82.93;102418.91;5055754;28;45459;-83
2023/05/26 03:05:34;;;;;;;;;13.67;12.00;;;;;13.70;82.38;102364.22;5063116;28;45853;-84
2023/05/26 03:07:59;;;;;;;;;14.33;10.67;;;;;13.74;82.96;102363.19;5079100;28;46076;-83
2023/05/26 03:10:25;;;;;;;;;12.33;12.33;;;;;13.50;82.49;102322.38;5081409;28;45636;-83
2023/05/26 03:12:50;;;;;;;;;18.00;13.33;;;;;13.31;82.77;102300.03;5063041;28;45369;-83
2023/05/26 03:15:16;;;;;;;;;14.67;12.00;;;;;13.56;82.14;102355.84;5083465;28;45316;-82
2023/05/26 03:17:42;;;;;;;;;15.33;13.67;;;;;13.53;81.25;102358.59;5081216;28;45305;-83
2023/05/26 03:20:08;;;;;;;;;13.67;11.67;;;;;13.88;82.09;102419.38;5081343;28;45461;-82
2023/05/26 03:22:36;;;;;;;;;14.67;14.00;;;;;13.60;82.11;102365.44;5065555;28;45600;-83
2023/05/26 03:25:01;;;;;;;;;9.67;9.67;;;;;13.16;83.27;102283.72;5065308;28;45323;-82
2023/05/26 03:27:27;;;;;;;;;13.00;10.33;;;;;13.35;82.88;102343.31;5065026;28;46305;-82
2023/05/26 03:29:52;;;;;;;;;11.00;9.33;;;;;13.35;83.36;102341.47;5077347;28;45437;-82
2023/05/26 03:32:18;;;;;;;;;16.00;13.33;;;;;13.23;83.28;102314.47;5080798;28;45296;-81
2023/05/26 03:34:44;;;;;;;;;19.33;14.67;;;;;13.22;83.33;102323.38;5060091;28;45485;-82
2023/05/26 03:37:11;;;;;;;;;18.00;11.33;;;;;13.16;83.60;102328.88;5076963;28;45423;-82
2023/05/26 03:39:37;;;;;;;;;15.00;12.33;;;;;13.47;83.31;102374.75;5076129;28;45449;-83
2023/05/26 03:42:02;;;;;;;;;14.33;13.00;;;;;13.36;84.26;102351.19;5072600;28;45406;-83
2023/05/26 03:44:28;;;;;;;;;15.33;13.00;;;;;13.56;84.71;102390.41;5080938;28;45386;-83
2023/05/26 03:46:54;;;;;;;;;14.67;14.67;;;;;13.23;84.34;102336.59;5062198;28;46856;-83
2023/05/26 03:49:20;;;;;;;;;14.33;13.67;;;;;13.12;85.36;102317.47;5061994;28;45310;-83
2023/05/26 03:51:45;;;;;;;;;14.00;10.00;;;;;13.45;84.59;102382.78;5060468;28;45500;-83
2023/05/26 03:54:11;;;;;;;;;12.67;11.33;;;;;12.98;82.81;102302.00;5078890;28;45436;-83
2023/05/26 03:56:37;;;;;;;;;13.67;13.00;;;;;12.99;83.59;102334.72;5058898;28;47109;-83
2023/05/26 03:59:08;;;;;;;;;14.33;12.33;;;;;13.06;83.99;102344.22;5055842;28;45324;-82
2023/05/26 04:01:36;;;;;;;;;21.67;15.67;;;;;13.13;83.90;102339.59;5055162;28;45461;-82
2023/05/26 04:04:02;;;;;;;;;15.67;12.00;;;;;13.43;84.46;102416.53;5060847;28;45297;-83
2023/05/26 04:06:35;;;;;;;;;18.33;12.00;;;;;13.30;85.12;102379.78;5059381;28;46268;-82
2023/05/26 04:09:03;;;;;;;;;13.00;10.00;;;;;13.43;84.93;102407.69;5076647;27;45407;-83
2023/05/26 04:11:29;;;;;;;;;15.00;12.67;;;;;12.80;85.05;102288.44;5061247;28;45484;-83
2023/05/26 04:13:55;;;;;;;;;14.67;12.00;;;;;12.95;84.81;102319.81;5080136;27;45454;-83
2023/05/26 04:16:20;;;;;;;;;15.67;13.67;;;;;13.33;85.60;102396.47;5080307;28;45293;-83
2023/05/26 04:18:46;;;;;;;;;16.33;11.00;;;;;12.72;85.72;102288.69;5057810;28;45475;-83
2023/05/26 04:21:16;;;;;;;;;19.67;12.00;;;;;13.11;86.46;102354.72;5056465;28;45391;-83
2023/05/26 04:23:41;;;;;;;;;17.00;12.33;;;;;13.10;85.08;102355.66;5060784;28;45492;-84
2023/05/26 04:26:13;;;;;;;;;10.00;10.00;;;;;12.70;84.55;102292.31;5060472;28;48170;-82
2023/05/26 04:28:42;;;;;;;;;14.67;11.67;;;;;12.88;86.29;102310.31;5060497;28;45442;-82
2023/05/26 04:31:08;;;;;;;;;16.67;12.00;;;;;12.85;84.79;102324.56;5061578;28;45356;-83
2023/05/26 04:33:39;;;;;;;;;15.00;12.00;;;;;12.98;85.40;102359.53;5050511;28;45422;-83
2023/05/26 04:36:08;;;;;;;;;18.00;13.00;;;;;12.89;86.42;102333.31;5057474;28;48611;-84
2023/05/26 04:38:34;;;;;;;;;12.67;9.33;;;;;12.88;87.77;102343.03;5058916;28;45431;-83
2023/05/26 04:41:04;;;;;;;;;12.67;12.67;;;;;13.39;85.08;102416.66;5074280;28;45411;-83
2023/05/26 04:43:30;;;;;;;;;17.67;10.33;;;;;12.84;85.28;102322.81;5071178;28;45336;-82
2023/05/26 04:45:57;;;;;;;;;20.33;13.00;;;;;12.96;85.37;102350.75;5066365;28;45634;-83
2023/05/26 04:48:27;;;;;;;;;12.67;11.33;;;;;12.77;85.17;102297.38;5060678;28;45362;-83
2023/05/26 04:51:01;;;;;;;;;14.67;14.67;;;;;12.97;84.43;102333.91;5077670;28;45329;-82
2023/05/26 04:53:27;;;;;;;;;14.00;10.67;;;;;12.93;84.31;102353.50;5047902;28;45363;-83
2023/05/26 04:55:52;;;;;;;;;12.33;12.33;;;;;12.88;84.96;102337.72;5054064;28;47426;-83
2023/05/26 04:58:18;;;;;;;;;16.33;14.33;;;;;13.43;86.24;102423.63;5071663;28;45750;-82
2023/05/26 05:00:44;;;;;;;;;15.67;15.00;;;;;12.89;85.16;102327.97;5061053;28;45670;-83
2023/05/26 05:03:09;;;;;;;;;14.67;12.00;;;;;12.88;83.83;102323.59;5075117;28;45549;-83
2023/05/26 05:05:35;;;;;;;;;14.67;13.67;;;;;13.33;85.19;102395.59;5082173;28;46301;-83
2023/05/26 05:08:00;;;;;;;;;13.67;13.67;;;;;13.03;84.33;102342.53;5081236;28;45295;-83
2023/05/26 05:10:28;;;;;;;;;19.00;12.00;;;;;13.40;83.68;102387.41;5082840;28;45323;-83
2023/05/26 05:12:54;;;;;;;;;14.00;11.33;;;;;13.72;83.17;102435.94;5062743;28;45545;-83
2023/05/26 05:15:28;;;;;;;;;10.00;6.33;;;;;13.42;83.43;102389.97;5079034;28;45658;-83
2023/05/26 05:17:54;;;;;;;;;16.67;13.33;;;;;13.66;82.29;102410.44;5076760;27;45321;-83
2023/05/26 05:20:21;;;;;;;;;16.00;13.33;;;;;13.29;83.37;102352.31;5059935;28;45590;-83
2023/05/26 05:22:46;;;;;;;;;15.33;12.67;;;;;13.54;81.19;102394.91;5079449;28;45553;-83
2023/05/26 05:25:11;;;;;;;;;16.33;11.00;;;;;13.90;82.77;102449.50;5079041;28;46732;-83
2023/05/26 05:27:39;;;;;;;;;13.67;13.33;;;;;13.79;81.23;102434.81;5077453;28;45839;-83
2023/05/26 05:30:06;;;;;;;;;18.00;10.33;;;;;13.88;82.44;102434.47;5049331;28;45365;-83
2023/05/26 05:32:31;;;;;;;;;15.67;12.33;;;;;13.74;80.22;102408.38;5072695;28;45352;-82
2023/05/26 05:34:57;;;;;;;;;17.00;13.67;;;;;13.98;81.47;102435.91;5060174;28;47956;-83
2023/05/26 05:37:23;;;;;;;;;16.00;12.00;;;;;14.14;81.39;102445.06;5075517;28;45463;-83
2023/05/26 05:39:48;;;;;;;;;15.67;11.67;;;;;13.96;79.92;102416.47;5057416;28;45453;-82
2023/05/26 05:42:14;;;;;;;;;19.00;14.00;;;;;13.95;79.83;102404.97;5073348;28;45572;-81
2023/05/26 05:44:39;;;;;;;;;16.00;11.33;;;;;14.33;80.19;102456.81;5078067;28;45410;-82
2023/05/26 05:47:05;;;;;;;;;16.00;14.67;;;;;14.35;79.17;102456.78;5076282;28;45533;-82
2023/05/26 05:49:31;;;;;;;;;20.00;15.00;;;;;14.37;78.50;102446.94;5059183;28;46012;-82
2023/05/26 05:51:56;;;;;;;;;15.33;13.00;;;;;13.93;78.35;102355.41;5055730;28;45598;-82
2023/05/26 05:54:22;;;;;;;;;17.00;12.67;;;;;14.19;80.26;102415.66;5082539;28;45454;-82
2023/05/26 05:56:47;;;;;;;;;16.67;12.67;;;;;14.48;79.29;102450.06;5067344;28;45383;-82
2023/05/26 05:59:13;;;;;;;;;17.00;12.33;;;;;14.43;78.06;102428.94;5080650;28;45477;-82
2023/05/26 06:01:38;;;;;;;;;16.33;12.33;;;;;14.47;79.04;102429.69;5077340;28;45616;-82
2023/05/26 06:04:03;;;;;;;;;13.67;12.67;;;;;14.50;76.54;102421.59;5081293;28;45595;-83
2023/05/26 06:06:29;;;;;;;;;9.33;9.33;;;;;14.61;76.70;102438.03;5081254;28;45492;-82
2023/05/26 06:08:57;;;;;;;;;19.67;15.67;;;;;14.67;77.09;102418.28;5080906;28;45286;-81
2023/05/26 06:11:23;;;;;;;;;11.67;10.00;;;;;14.96;76.96;102452.66;5079499;28;45418;-83
2023/05/26 06:13:48;;;;;;;;;17.00;13.67;;;;;15.22;77.03;102479.16;5081538;28;45434;-83
2023/05/26 06:16:14;;;;;;;;;17.67;15.00;;;;;15.30;75.76;102481.53;5060705;28;45273;-84
2023/05/26 06:18:39;;;;;;;;;18.67;12.33;;;;;15.21;74.81;102484.56;5075254;28;45454;-82
2023/05/26 06:21:05;;;;;;;;;21.67;14.67;;;;;14.97;74.74;102422.44;5072619;28;45502;-83
2023/05/26 06:23:30;;;;;;;;;13.67;11.33;;;;;15.21;74.48;102458.78;5081017;28;46149;-83
2023/05/26 06:25:55;;;;;;;;;18.00;14.00;;;;;15.11;73.44;102446.75;5077490;28;45667;-83
2023/05/26 06:28:21;;;;;;;;;15.00;8.67;;;;;15.13;74.35;102429.75;5077108;28;45440;-84
2023/05/26 06:30:47;;;;;;;;;13.67;12.00;;;;;15.47;73.38;102479.06;5081336;28;45602;-83
2023/05/26 06:33:12;;;;;;;;;11.67;10.67;;;;;15.57;72.49;102489.28;5079720;28;46373;-81
2023/05/26 06:35:37;;;;;;;;;14.33;12.00;;;;;15.34;72.12;102443.16;5061686;28;45483;-82
2023/05/26 06:38:03;;;;;;;;;16.00;12.33;;;;;15.63;71.56;102488.19;5057394;28;45785;-82
2023/05/26 06:40:28;;;;;;;;;18.33;13.33;;;;;15.56;72.80;102473.38;5062798;28;45493;-82
2023/05/26 06:42:53;;;;;;;;;14.33;13.00;;;;;15.66;70.95;102482.72;5060181;28;48379;-83
2023/05/26 06:45:19;;;;;;;;;14.67;13.33;;;;;15.70;71.28;102484.34;5081159;28;45479;-83
2023/05/26 06:47:44;;;;;;;;;14.67;11.00;;;;;15.47;71.69;102434.59;5063571;28;45466;-83
2023/05/26 06:50:10;;;;;;;;;14.67;12.33;;;;;15.72;69.92;102476.25;5081754;28;45328;-81
2023/05/26 06:52:35;;;;;;;;;15.33;14.00;;;;;15.75;71.21;102479.66;5057655;28;45569;-81
2023/05/26 06:55:01;;;;;;;;;18.00;14.33;;;;;15.82;70.88;102467.81;5061763;28;45595;-82
2023/05/26 06:57:26;;;;;;;;;15.00;13.00;;;;;15.91;69.93;102483.41;5063477;28;45390;-82
2023/05/26 06:59:51;;;;;;;;;17.33;14.00;;;;;16.03;70.38;102488.22;5081332;28;45498;-81
2023/05/26 07:02:17;;;;;;;;;15.00;12.67;;;;;16.12;69.69;102492.31;5078369;28;54912;-82
2023/05/26 07:04:43;;;;;;;;;15.33;11.00;;;;;16.19;70.95;102474.22;5076124;28;45899;-81
2023/05/26 07:07:09;;;;;;;;;16.33;14.00;;;;;16.36;69.54;102482.38;5078126;27;45439;-82
2023/05/26 07:09:34;;;;;;;;;17.00;14.67;;;;;16.14;69.04;102427.25;5082361;27;45502;-82
2023/05/26 07:11:59;;;;;;;;;18.33;15.00;;;;;16.45;69.02;102457.91;5055366;28;46846;-82
2023/05/26 07:14:25;;;;;;;;;13.67;12.67;;;;;16.48;67.79;102468.47;5073630;28;45384;-82
2023/05/26 07:16:50;;;;;;;;;19.00;15.00;;;;;16.33;66.94;102429.94;5079398;28;45332;-82
2023/05/26 07:19:25;;;;;;;;;16.00;15.00;;;;;16.42;67.54;102428.69;5080264;28;45329;-82
2023/05/26 07:21:50;;;;;;;;;16.33;15.00;;;;;16.55;67.14;102435.22;5059290;28;47108;-82
2023/05/26 07:24:27;;;;;;;;;18.00;16.00;;;;;16.85;67.46;102460.50;5080903;27;45460;-81
2023/05/26 07:26:52;;;;;;;;;16.33;13.00;;;;;16.58;67.42;102371.84;5081098;28;45366;-82
2023/05/26 07:29:18;;;;;;;;;13.33;11.67;;;;;16.76;67.29;102401.28;5061915;28;45283;-82
2023/05/26 07:31:48;;;;;;;;;15.67;13.00;;;;;17.40;67.11;102474.78;5057216;28;47363;-82
2023/05/26 07:34:14;;;;;;;;;15.67;15.33;;;;;17.42;66.68;102447.94;5060462;28;45448;-82
2023/05/26 07:36:39;;;;;;;;;14.00;13.00;;;;;17.24;64.68;102401.59;5060095;28;45541;-83
2023/05/26 07:39:08;;;;;;;;;14.67;13.33;;;;;17.24;63.74;102395.38;5054583;28;45497;-82
2023/05/26 07:41:41;;;;;;;;;15.67;14.00;;;;;17.49;65.39;102414.59;5060736;27;47876;-80
2023/05/26 07:44:06;;;;;;;;;12.67;11.33;;;;;17.49;63.44;102391.41;5059006;28;45381;-83
2023/05/26 07:46:32;;;;;;;;;18.67;14.00;;;;;17.51;63.33;102376.13;5056998;28;45432;-83
2023/05/26 07:49:05;;;;;;;;;12.00;11.33;;;;;17.65;62.17;102391.50;5079243;28;45467;-82
2023/05/26 07:51:37;;;;;;;;;17.33;14.33;;;;;17.66;62.36;102374.50;5060272;28;46788;-83
2023/05/26 07:54:20;;;;;;;;;17.67;14.00;;;;;18.20;62.08;102472.50;5060227;28;45503;-83
2023/05/26 07:56:51;;;;;;;;;14.33;13.67;;;;;18.35;61.77;102501.16;5058893;28;45337;-82
2023/05/26 07:59:30;;;;;;;;;19.67;18.33;;;;;17.98;62.36;102397.78;5059909;28;45549;-82
2023/05/26 08:02:20;;;;;;;;;15.00;13.67;;;;;18.31;61.50;102429.94;5058974;28;45669;-83
2023/05/26 08:04:53;;;;;;;;;20.33;13.00;;;;;18.52;62.36;102449.41;5080340;28;45457;-82
2023/05/26 08:07:27;;;;;;;;;16.00;14.67;;;;;18.72;61.77;102465.25;5042570;28;45675;-83
2023/05/26 08:09:52;;;;;;;;;14.00;12.00;;;;;18.62;60.75;102407.72;5061632;28;45340;-82
2023/05/26 08:12:18;;;;;;;;;19.67;13.33;;;;;18.77;60.37;102401.53;5060263;28;46801;-82
2023/05/26 08:14:43;;;;;;;;;14.00;12.67;;;;;19.01;59.59;102444.88;5079769;28;45268;-82
2023/05/26 08:17:08;;;;;;;;;17.00;16.00;;;;;19.12;59.34;102450.47;5059642;28;45352;-83
2023/05/26 08:19:35;;;;;;;;;17.00;12.00;;;;;19.05;59.64;102433.00;5060819;28;45549;-82
2023/05/26 08:22:00;;;;;;;;;18.33;17.00;;;;;19.34;58.08;102460.88;5077636;27;47542;-82
2023/05/26 08:24:25;;;;;;;;;17.00;14.00;;;;;19.14;59.73;102427.97;5069342;28;45435;-82
2023/05/26 08:26:51;;;;;;;;;14.67;12.33;;;;;19.51;58.83;102450.03;5080914;28;45406;-83
2023/05/26 08:29:16;;;;;;;;;18.33;14.00;;;;;19.42;57.23;102416.56;5080245;28;45415;-82
2023/05/26 08:31:42;;;;;;;;;14.67;13.00;;;;;19.69;57.34;102473.13;5060019;28;48223;-83
2023/05/26 08:34:08;;;;;;;;;18.33;14.00;;;;;19.81;58.56;102461.66;5056747;28;45438;-82
2023/05/26 08:36:33;;;;;;;;;18.00;12.33;;;;;19.75;59.50;102430.69;5059503;28;46418;-81
2023/05/26 08:39:08;;;;;;;;;14.67;14.00;;;;;19.81;57.71;102404.41;5078571;28;46432;-84
2023/05/26 08:41:48;;;;;;;;;16.33;13.67;;;;;20.15;56.52;102482.00;5059059;28;46503;-81
2023/05/26 08:44:23;;;;;;;;;16.00;14.00;;;;;19.96;58.03;102417.75;5052349;28;45383;-83
2023/05/26 08:46:57;;;;;;;;;17.00;13.67;;;;;19.98;58.16;102388.13;5059743;28;45548;-83
2023/05/26 08:49:42;;;;;;;;;17.00;14.00;;;;;20.46;55.62;102464.88;5076986;28;45376;-82
2023/05/26 08:52:23;;;;;;;;;;;;;;;;;;;;;
2023/05/26 08:55:02;;;;;;;;;10.67;10.33;;;;;20.57;54.82;102457.03;5078304;28;71617;-83
2023/05/26 08:57:32;;;;;;;;;11.67;11.00;;;;;20.21;55.04;102366.97;5057773;28;45313;-83
2023/05/26 09:00:04;;;;;;;;;19.33;15.00;;;;;20.49;56.42;102398.34;5073913;28;45490;-82
2023/05/26 09:02:30;;;;;;;;;17.67;16.00;;;;;20.75;55.07;102426.25;5059444;28;47219;-83
2023/05/26 09:05:01;;;;;;;;;17.00;13.33;;;;;20.94;55.10;102469.84;5063986;28;45479;-83
2023/05/26 09:07:27;;;;;;;;;14.00;13.00;;;;;20.53;53.15;102383.75;5070527;28;45308;-83
2023/05/26 09:10:22;;;;;;;;;14.33;10.33;;;;;20.48;52.13;102364.41;5060795;28;45285;-82
2023/05/26 09:13:14;;;;;;;;;19.00;17.33;;;;;20.56;54.14;102380.00;5074570;27;47187;-82
2023/05/26 09:15:41;;;;;;;;;11.33;10.33;;;;;21.08;54.00;102420.53;5059322;28;45280;-82
2023/05/26 09:18:22;;;;;;;;;16.00;13.33;;;;;20.79;53.66;102365.94;5058894;28;45443;-84
2023/05/26 09:24:00;;;;;;;;;13.67;11.67;;;;;21.31;54.66;102419.91;5072582;28;45560;-83
2023/05/26 09:26:34;;;;;;;;;14.00;12.00;;;;;21.77;54.20;102466.16;5077338;28;45813;-83
2023/05/26 09:29:07;;;;;;;;;13.00;12.00;;;;;21.54;53.26;102399.53;5059130;28;45549;-83
2023/05/26 09:32:01;;;;;;;;;17.33;12.00;;;;;21.79;53.45;102408.50;5057077;28;45570;-83
2023/05/26 09:34:39;;;;;;;;;20.00;15.67;;;;;21.94;51.78;102408.47;5050307;28;46908;-84
2023/05/26 09:37:28;;;;;;;;;10.33;10.33;;;;;22.16;52.83;102435.63;5076652;28;45471;-84
2023/05/26 09:39:56;;;;;;;;;11.00;10.67;;;;;21.99;51.57;102412.56;5059809;28;45579;-83
2023/05/26 09:42:33;;;;;;;;;13.67;12.67;;;;;21.92;51.95;102399.63;5059083;28;45534;-84
2023/05/26 09:45:02;;;;;;;;;16.00;13.33;;;;;22.00;51.43;102395.44;5060109;28;46615;-84
2023/05/26 09:47:39;;;;;;;;;13.67;13.00;;;;;21.85;50.83;102377.63;5055860;28;45416;-83
2023/05/26 09:50:10;;;;;;;;;21.00;18.00;;;;;22.21;51.04;102403.84;5053469;28;45967;-84
2023/05/26 09:52:43;;;;;;;;;13.33;13.00;;;;;22.41;50.38;102441.06;5057849;28;45684;-81
2023/05/26 09:55:09;;;;;;;;;17.33;13.67;;;;;22.12;48.85;102399.94;5065122;27;45790;-81
2023/05/26 09:57:41;;;;;;;;;20.00;13.33;;;;;22.14;50.33;102398.03;5061749;27;45410;-83
2023/05/26 10:00:12;;;;;;;;;14.00;14.00;;;;;22.40;50.11;102436.63;5063764;28;45280;-82
2023/05/26 10:02:54;;;;;;;;;11.33;11.33;;;;;22.59;52.11;102468.53;5060525;28;45589;-84
2023/05/26 10:05:23;;;;;;;;;21.33;16.00;;;;;22.46;51.82;102414.59;5076709;28;45846;-83
2023/05/26 10:07:52;;;;;;;;;13.33;13.33;;;;;22.66;50.37;102415.91;5075021;28;45296;-82
2023/05/26 10:10:27;;;;;;;;;12.67;12.67;;;;;22.78;49.93;102409.63;5050080;28;45509;-82
2023/05/26 10:12:53;;;;;;;;;20.00;14.33;;;;;22.91;48.89;102410.44;5059197;28;47201;-83
2023/05/26 10:15:19;;;;;;;;;16.33;10.33;;;;;23.06;49.21;102430.91;5077740;28;45481;-81
2023/05/26 10:17:45;;;;;;;;;19.67;14.00;;;;;22.90;49.63;102386.28;5058401;28;45888;-82
2023/05/26 10:20:14;;;;;;;;;14.00;12.00;;;;;23.10;50.33;102408.09;5078632;28;45388;-83
2023/05/26 10:23:14;;;;;;;;;18.00;12.67;;;;;23.46;48.48;102446.88;5074903;28;45411;-82
2023/05/26 10:26:02;;;;;;;;;16.33;12.33;;;;;23.49;49.77;102452.06;5076028;28;46363;-82
2023/05/26 10:29:00;;;;;;;;;15.33;13.67;;;;;23.50;49.83;102448.34;5076594;28;45455;-83
2023/05/26 10:31:45;;;;;;;;;14.67;13.00;;;;;23.22;48.05;102385.59;5058617;28;45522;-82
2023/05/26 10:34:35;;;;;;;;;11.33;11.33;;;;;22.95;50.03;102363.38;5076928;28;45442;-81
2023/05/26 10:37:11;;;;;;;;;15.67;13.00;;;;;23.01;48.85;102379.09;5073154;27;47254;-83
2023/05/26 10:39:41;;;;;;;;;14.00;14.00;;;;;23.08;48.54;102380.38;5055886;28;46674;-83
2023/05/26 10:42:23;;;;;;;;;17.00;14.00;;;;;22.86;49.15;102358.66;5061028;28;45268;-80
2023/05/26 10:45:10;;;;;;;;;15.67;13.67;;;;;23.21;49.85;102391.09;5059684;28;45849;-81
2023/05/26 10:47:48;;;;;;;;;22.67;14.67;;;;;23.01;50.68;102338.63;5076410;28;46107;-81
2023/05/26 10:50:14;;;;;;;;;14.33;13.00;;;;;23.51;51.09;102423.94;5061602;28;45553;-81
2023/05/26 10:52:55;;;;;;;;;11.00;10.33;;;;;23.50;50.64;102386.22;5058116;28;45270;-81
2023/05/26 10:55:29;;;;;;;;;12.00;10.67;;;;;23.91;48.78;102429.84;5079623;28;45272;-82
2023/05/26 10:58:14;;;;;;;;;16.67;11.33;;;;;23.71;47.16;102400.81;5078593;28;46559;-82
2023/05/26 11:00:43;;;;;;;;;17.33;15.00;;;;;23.72;49.64;102370.94;5080492;27;45487;-81
2023/05/26 11:03:30;;;;;;;;;14.00;10.67;;;;;24.17;48.83;102425.16;5079223;27;45391;-82
2023/05/26 11:05:56;;;;;;;;;16.00;14.00;;;;;24.04;48.93;102373.84;5069852;28;45642;-81
2023/05/26 11:08:32;;;;;;;;;15.33;13.00;;;;;24.22;48.01;102382.38;5078973;28;46533;-81
2023/05/26 11:10:59;;;;;;;;;15.00;11.67;;;;;24.30;46.78;102382.63;5062919;28;45297;-81
2023/05/26 11:13:44;;;;;;;;;12.67;11.00;;;;;24.55;47.94;102411.25;5081066;28;45430;-82
2023/05/26 11:16:26;;;;;;;;;13.00;10.67;;;;;24.40;49.14;102402.56;5080536;28;45445;-82
2023/05/26 11:18:55;;;;;;;;;12.67;11.33;;;;;24.66;50.31;102395.03;5060290;28;45590;-81
2023/05/26 11:21:26;;;;;;;;;13.33;10.67;;;;;24.81;47.56;102416.28;5061202;28;45362;-81
2023/05/26 11:23:56;;;;;;;;;19.00;12.33;;;;;24.68;46.84;102376.81;5058549;28;45334;-81
2023/05/26 11:26:23;;;;;;;;;12.67;9.33;;;;;24.59;46.38;102388.41;5074238;28;45245;-81